createdAt,value
2024-03-16T00:00:11.578Z,99943.09
2024-03-16T00:02:39.873Z,99936.34
2024-03-16T00:05:07.777Z,99934.47
2024-03-16T00:07:35.576Z,99933.37
2024-03-16T00:10:03.615Z,99936.53
2024-03-16T00:12:31.960Z,99933.50
2024-03-16T00:14:59.857Z,99932.34
2024-03-16T00:17:28.839Z,99927.69
2024-03-16T00:19:56.429Z,99923.63
2024-03-16T00:22:23.843Z,99926.69
2024-03-16T00:24:51.782Z,99913.34
2024-03-16T00:27:19.489Z,99928.53
2024-03-16T00:29:47.247Z,99928.59
2024-03-16T00:32:15.029Z,99934.81
2024-03-16T00:34:42.713Z,99924.28
2024-03-16T00:37:10.558Z,99924.47
2024-03-16T00:39:38.469Z,99920.72
2024-03-16T00:42:06.141Z,99926.00
2024-03-16T00:44:33.781Z,99924.44
2024-03-16T00:47:01.975Z,99928.31
2024-03-16T00:49:29.799Z,99924.00
2024-03-16T00:51:58.743Z,99920.31
2024-03-16T00:54:26.841Z,99910.50
2024-03-16T00:56:54.528Z,99906.66
2024-03-16T00:59:22.299Z,99906.75
2024-03-16T01:01:50.256Z,99912.66
2024-03-16T01:04:18.043Z,99918.53
2024-03-16T01:06:45.700Z,99914.09
2024-03-16T01:09:17.378Z,99907.84
2024-03-16T01:11:44.982Z,99907.03
2024-03-16T01:14:12.869Z,99907.84
2024-03-16T01:16:40.416Z,99912.13
2024-03-16T01:19:08.501Z,99912.09
2024-03-16T01:21:36.589Z,99912.03
2024-03-16T01:24:04.550Z,99912.78
2024-03-16T01:26:32.066Z,99906.44
2024-03-16T01:29:01.989Z,99901.84
2024-03-16T01:31:30.847Z,99901.84
2024-03-16T01:33:58.566Z,99905.03
2024-03-16T01:36:26.599Z,99904.63
2024-03-16T01:38:56.560Z,99893.28
2024-03-16T01:41:24.703Z,99896.97
2024-03-16T01:43:52.581Z,99908.00
2024-03-16T01:46:20.292Z,99907.16
2024-03-16T01:48:53.182Z,99901.84
2024-03-16T01:51:21.274Z,99908.25
2024-03-16T01:53:49.413Z,99899.38
2024-03-16T01:56:17.005Z,99898.31
2024-03-16T01:58:46.833Z,99893.16
2024-03-16T02:01:14.744Z,99892.16
2024-03-16T02:03:43.803Z,99900.59
2024-03-16T02:06:11.543Z,99898.84
2024-03-16T02:08:39.369Z,99901.22
2024-03-16T02:11:07.360Z,99902.94
2024-03-16T02:13:34.980Z,99893.50
2024-03-16T02:16:03.403Z,99892.69
2024-03-16T02:18:31.315Z,99894.56
2024-03-16T02:20:59.132Z,99895.28
2024-03-16T02:23:26.954Z,99903.06
2024-03-16T02:25:54.934Z,99906.22
2024-03-16T02:28:22.521Z,99906.22
2024-03-16T02:30:50.130Z,99904.69
2024-03-16T02:33:18.169Z,99908.63
2024-03-16T02:35:45.919Z,99911.94
2024-03-16T02:38:13.580Z,99903.13
2024-03-16T02:40:43.558Z,99901.06
2024-03-16T02:43:11.177Z,99908.59
2024-03-16T02:45:38.825Z,99914.38
2024-03-16T02:48:07.091Z,99903.59
2024-03-16T02:50:34.858Z,99906.22
2024-03-16T02:53:02.459Z,99915.88
2024-03-16T02:55:30.640Z,99908.06
2024-03-16T02:57:58.446Z,99910.37
2024-03-16T03:00:28.385Z,99922.03
2024-03-16T03:02:56.556Z,99922.44
2024-03-16T03:05:25.594Z,99923.78
2024-03-16T03:07:53.986Z,99928.69
2024-03-16T03:10:23.139Z,99919.25
2024-03-16T03:12:51.065Z,99920.50
2024-03-16T03:15:19.687Z,99926.50
2024-03-16T03:17:48.310Z,99920.09
2024-03-16T03:20:15.937Z,99926.03
2024-03-16T03:22:43.465Z,99936.03
2024-03-16T03:25:11.839Z,99926.56
2024-03-16T03:27:39.548Z,99925.66
2024-03-16T03:30:07.504Z,99923.94
2024-03-16T03:32:35.500Z,99924.87
2024-03-16T03:35:03.193Z,99909.94
2024-03-16T03:37:30.855Z,99899.00
2024-03-16T03:39:59.138Z,99891.44
2024-03-16T03:42:27.016Z,99898.97
2024-03-16T03:45:23.884Z,99898.12
2024-03-16T03:48:15.652Z,99896.69
2024-03-16T03:50:44.329Z,99907.31
2024-03-16T03:53:12.151Z,99908.56
2024-03-16T03:55:39.733Z,99916.75
2024-03-16T03:58:08.201Z,99916.50
2024-03-16T04:00:36.278Z,99917.56
2024-03-16T04:03:07.677Z,99926.09
2024-03-16T04:05:35.496Z,99929.34
2024-03-16T04:08:06.000Z,99930.09
2024-03-16T04:10:35.434Z,99929.06
2024-03-16T04:13:03.749Z,99927.75
2024-03-16T04:15:32.094Z,99926.56
2024-03-16T04:18:00.056Z,99928.34
2024-03-16T04:20:27.838Z,99930.28
2024-03-16T04:22:55.521Z,99929.25
2024-03-16T04:25:23.490Z,99937.66
2024-03-16T04:27:51.356Z,99940.78
2024-03-16T04:30:19.004Z,99940.03
2024-03-16T04:32:47.027Z,99937.59
2024-03-16T04:35:14.675Z,99941.13
2024-03-16T04:37:42.426Z,99936.22
2024-03-16T04:40:12.167Z,99941.50
2024-03-16T04:42:40.057Z,99942.28
2024-03-16T04:45:08.894Z,99944.06
2024-03-16T04:47:36.720Z,99942.94
2024-03-16T04:50:04.504Z,99940.50
2024-03-16T04:52:32.645Z,99942.28
2024-03-16T04:55:00.445Z,99939.13
2024-03-16T04:57:28.713Z,99936.50
2024-03-16T04:59:56.345Z,99933.56
2024-03-16T05:02:24.327Z,99938.94
2024-03-16T05:04:52.594Z,99937.34
2024-03-16T05:07:21.488Z,99930.53
2024-03-16T05:09:50.902Z,99933.50
2024-03-16T05:12:19.820Z,99932.37
2024-03-16T05:14:47.381Z,99934.94
2024-03-16T05:17:15.411Z,99933.41
2024-03-16T05:19:43.427Z,99935.00
2024-03-16T05:22:11.011Z,99934.84
2024-03-16T05:24:39.147Z,99933.75
2024-03-16T05:27:08.008Z,99945.31
2024-03-16T05:29:38.593Z,99937.81
2024-03-16T05:32:06.787Z,99938.38
2024-03-16T05:34:34.504Z,99937.34
2024-03-16T05:37:02.519Z,99922.38
2024-03-16T05:39:30.474Z,99917.28
2024-03-16T05:41:58.244Z,99930.66
2024-03-16T05:44:26.643Z,99921.00
2024-03-16T05:46:54.646Z,99916.81
2024-03-16T05:49:23.851Z,99922.50
2024-03-16T05:51:52.825Z,99921.78
2024-03-16T05:54:21.076Z,99917.09
2024-03-16T05:56:49.571Z,99927.56
2024-03-16T05:59:17.190Z,99921.03
2024-03-16T06:01:46.818Z,99921.44
2024-03-16T06:04:17.214Z,99930.94
2024-03-16T06:06:44.933Z,99933.09
2024-03-16T06:09:12.982Z,99927.53
2024-03-16T06:11:41.668Z,99937.25
2024-03-16T06:14:12.102Z,99931.78
2024-03-16T06:16:41.364Z,99938.63
2024-03-16T06:19:09.326Z,99934.88
2024-03-16T06:21:36.930Z,99937.75
2024-03-16T06:24:05.285Z,99938.69
2024-03-16T06:26:37.460Z,99930.56
2024-03-16T06:29:10.150Z,99939.09
2024-03-16T06:31:39.604Z,99951.75
2024-03-16T06:34:07.908Z,99945.88
2024-03-16T06:36:37.155Z,99941.41
2024-03-16T06:39:12.381Z,99941.94
2024-03-16T06:41:40.269Z,99948.72
2024-03-16T06:44:08.154Z,99964.03
2024-03-16T06:46:35.764Z,99957.16
2024-03-16T06:49:07.369Z,99966.62
2024-03-16T06:51:36.105Z,99971.94
2024-03-16T06:54:07.036Z,99974.84
2024-03-16T06:56:34.739Z,99984.53
2024-03-16T06:59:02.678Z,99978.16
2024-03-16T07:01:30.626Z,99983.97
2024-03-16T07:03:58.370Z,99983.19
2024-03-16T07:06:26.624Z,99991.84
2024-03-16T07:08:54.297Z,99994.94
2024-03-16T07:11:22.008Z,99992.44
2024-03-16T07:13:50.085Z,99992.66
2024-03-16T07:16:17.872Z,99991.91
2024-03-16T07:18:46.071Z,99998.09
2024-03-16T07:21:17.167Z,100004.75
2024-03-16T07:23:45.155Z,100007.38
2024-03-16T07:26:12.685Z,100008.47
2024-03-16T07:28:40.569Z,100013.47
2024-03-16T07:31:08.809Z,100006.94
2024-03-16T07:33:36.539Z,100003.44
2024-03-16T07:36:05.637Z,100009.31
2024-03-16T07:38:33.613Z,100007.97
2024-03-16T07:41:01.124Z,100007.25
2024-03-16T07:43:28.874Z,100014.84
2024-03-16T07:45:56.368Z,100019.72
2024-03-16T07:48:24.158Z,100016.50
2024-03-16T07:50:59.325Z,100018.47
2024-03-16T07:53:27.104Z,100017.16
2024-03-16T07:56:00.705Z,100014.69
2024-03-16T07:58:28.477Z,100013.75
2024-03-16T08:00:56.335Z,100013.69
2024-03-16T08:03:24.656Z,100015.84
2024-03-16T08:05:52.198Z,100013.19
2024-03-16T08:08:20.757Z,100008.97
2024-03-16T08:10:49.800Z,100012.31
2024-03-16T08:13:17.316Z,100018.25
2024-03-16T08:15:44.975Z,100013.78
2024-03-16T08:18:13.594Z,100008.25
2024-03-16T08:20:41.161Z,100008.84
2024-03-16T08:23:08.715Z,100006.56
2024-03-16T08:25:36.617Z,100008.91
2024-03-16T08:28:04.466Z,100004.00
2024-03-16T08:30:32.189Z,100010.63
2024-03-16T08:33:00.117Z,100008.28
2024-03-16T08:35:27.699Z,99996.28
2024-03-16T08:37:55.636Z,100000.25
2024-03-16T08:40:23.514Z,99998.56
2024-03-16T08:42:52.817Z,100003.94
2024-03-16T08:45:20.628Z,100005.09
2024-03-16T08:47:48.601Z,99998.03
2024-03-16T08:50:16.501Z,100002.81
2024-03-16T08:52:44.589Z,100003.88
2024-03-16T08:55:14.663Z,99996.72
2024-03-16T08:57:45.356Z,99997.66
2024-03-16T09:00:16.292Z,100003.84
2024-03-16T09:02:44.396Z,100006.22
2024-03-16T09:05:12.295Z,100002.63
2024-03-16T09:07:40.595Z,99997.84
2024-03-16T09:10:09.640Z,100003.41
2024-03-16T09:12:37.626Z,100006.16
2024-03-16T09:15:10.074Z,99996.09
2024-03-16T09:17:37.943Z,100002.16
2024-03-16T09:20:11.000Z,100011.94
2024-03-16T09:22:38.719Z,100012.38
2024-03-16T09:25:07.859Z,100006.69
2024-03-16T09:27:36.772Z,100008.41
2024-03-16T09:30:12.993Z,100007.34
2024-03-16T09:32:41.634Z,100012.31
2024-03-16T09:35:12.030Z,100007.75
2024-03-16T09:37:40.080Z,100011.53
2024-03-16T09:40:14.748Z,100011.09
2024-03-16T09:42:42.933Z,100012.84
